Řízení letového provozu České republiky
Letiste: LKPD Aktualizace: 29.04.2017 05:06:14  UTC
 METAR LKPD 29.04. 05:00 ...
METAR LKPD 290500Z 10003KT 4000 BR NSC 02/01 Q1016 =